sensor_id;sensor_type;location;lat;lon;timestamp;temperature;humidity
66871;DHT22;53780;44.998;9.926;2022-10-26T00:00:26;18.08;79.53
66871;DHT22;53780;44.998;9.926;2022-10-26T00:03:30;18.05;79.59
66871;DHT22;53780;44.998;9.926;2022-10-26T00:06:35;18.06;79.55
66871;DHT22;53780;44.998;9.926;2022-10-26T00:09:38;18.08;79.45
66871;DHT22;53780;44.998;9.926;2022-10-26T00:12:42;18.05;79.49
66871;DHT22;53780;44.998;9.926;2022-10-26T07:29:02;21.76;67.85
66871;DHT22;53780;44.998;9.926;2022-10-26T07:32:06;21.56;68.47
66871;DHT22;53780;44.998;9.926;2022-10-26T07:35:09;21.56;68.34
66871;DHT22;53780;44.998;9.926;2022-10-26T07:38:13;22.40;66.42
66871;DHT22;53780;44.998;9.926;2022-10-26T07:41:17;24.05;62.43
66871;DHT22;53780;44.998;9.926;2022-10-26T07:44:21;24.34;60.01
66871;DHT22;53780;44.998;9.926;2022-10-26T07:47:24;24.67;59.71
66871;DHT22;53780;44.998;9.926;2022-10-26T07:50:28;24.80;57.60
66871;DHT22;53780;44.998;9.926;2022-10-26T07:53:32;23.92;60.88
66871;DHT22;53780;44.998;9.926;2022-10-26T07:56:36;23.23;62.89
66871;DHT22;53780;44.998;9.926;2022-10-26T07:59:40;22.75;64.33
66871;DHT22;53780;44.998;9.926;2022-10-26T08:02:44;22.34;65.47
66871;DHT22;53780;44.998;9.926;2022-10-26T08:05:48;22.13;66.44
66871;DHT22;53780;44.998;9.926;2022-10-26T08:08:58;21.89;68.15
66871;DHT22;53780;44.998;9.926;2022-10-26T08:12:02;22.04;66.99
66871;DHT22;53780;44.998;9.926;2022-10-26T08:15:06;21.92;67.72
66871;DHT22;53780;44.998;9.926;2022-10-26T08:18:10;22.03;67.47
66871;DHT22;53780;44.998;9.926;2022-10-26T08:21:14;22.02;67.24
66871;DHT22;53780;44.998;9.926;2022-10-26T08:24:18;22.22;67.44
66871;DHT22;53780;44.998;9.926;2022-10-26T08:27:22;22.64;65.60
66871;DHT22;53780;44.998;9.926;2022-10-26T08:30:25;23.74;62.65
66871;DHT22;53780;44.998;9.926;2022-10-26T08:33:29;24.33;61.40
66871;DHT22;53780;44.998;9.926;2022-10-26T08:36:33;24.53;60.71
66871;DHT22;53780;44.998;9.926;2022-10-26T08:39:37;24.85;59.29
66871;DHT22;53780;44.998;9.926;2022-10-26T08:42:46;25.26;58.59
66871;DHT22;53780;44.998;9.926;2022-10-26T08:45:59;25.73;55.87
66871;DHT22;53780;44.998;9.926;2022-10-26T08:49:21;26.45;54.98
66871;DHT22;53780;44.998;9.926;2022-10-26T08:52:37;26.90;53.47
66871;DHT22;53780;44.998;9.926;2022-10-26T08:55:52;27.74;51.53
66871;DHT22;53780;44.998;9.926;2022-10-26T08:59:04;29.23;48.97
66871;DHT22;53780;44.998;9.926;2022-10-26T09:02:12;31.56;44.13
66871;DHT22;53780;44.998;9.926;2022-10-26T09:05:22;32.74;40.28
66871;DHT22;53780;44.998;9.926;2022-10-26T09:11:56;30.78;44.59
66871;DHT22;53780;44.998;9.926;2022-10-26T09:22:29;27.73;51.32
66871;DHT22;53780;44.998;9.926;2022-10-26T09:25:40;27.27;51.90
66871;DHT22;53780;44.998;9.926;2022-10-26T09:28:46;28.76;50.23
66871;DHT22;53780;44.998;9.926;2022-10-26T09:32:00;30.86;44.58
66871;DHT22;53780;44.998;9.926;2022-10-26T09:35:16;30.08;45.90
66871;DHT22;53780;44.998;9.926;2022-10-26T09:38:28;29.99;46.14
66871;DHT22;53780;44.998;9.926;2022-10-26T09:41:39;28.29;49.83
66871;DHT22;53780;44.998;9.926;2022-10-26T09:48:41;28.42;49.80
66871;DHT22;53780;44.998;9.926;2022-10-26T09:51:47;28.27;50.10
66871;DHT22;53780;44.998;9.926;2022-10-26T09:54:51;28.49;49.98
66871;DHT22;53780;44.998;9.926;2022-10-26T09:57:57;28.01;50.66
66871;DHT22;53780;44.998;9.926;2022-10-26T10:01:02;27.30;52.03
66871;DHT22;53780;44.998;9.926;2022-10-26T10:04:16;26.88;54.68
66871;DHT22;53780;44.998;9.926;2022-10-26T10:07:23;27.05;54.11
66871;DHT22;53780;44.998;9.926;2022-10-26T10:10:26;27.14;53.22
66871;DHT22;53780;44.998;9.926;2022-10-26T10:13:42;26.66;53.83
66871;DHT22;53780;44.998;9.926;2022-10-26T10:17:08;26.70;54.40
66871;DHT22;53780;44.998;9.926;2022-10-26T10:20:20;26.67;54.21
66871;DHT22;53780;44.998;9.926;2022-10-26T10:23:30;26.15;56.08
66871;DHT22;53780;44.998;9.926;2022-10-26T10:31:05;26.12;55.35
66871;DHT22;53780;44.998;9.926;2022-10-26T10:34:16;26.43;54.77
66871;DHT22;53780;44.998;9.926;2022-10-26T10:37:29;26.48;55.23
66871;DHT22;53780;44.998;9.926;2022-10-26T10:40:35;26.24;55.65
66871;DHT22;53780;44.998;9.926;2022-10-26T10:43:46;26.32;55.65
66871;DHT22;53780;44.998;9.926;2022-10-26T10:47:06;26.35;56.19
66871;DHT22;53780;44.998;9.926;2022-10-26T10:53:20;26.49;55.40
66871;DHT22;53780;44.998;9.926;2022-10-26T10:57:31;26.93;55.01
66871;DHT22;53780;44.998;9.926;2022-10-26T11:00:40;27.35;53.27
66871;DHT22;53780;44.998;9.926;2022-10-26T11:04:26;27.48;53.87
66871;DHT22;53780;44.998;9.926;2022-10-26T11:12:06;27.45;53.45
66871;DHT22;53780;44.998;9.926;2022-10-26T11:15:13;27.30;54.92
66871;DHT22;53780;44.998;9.926;2022-10-26T11:18:27;27.22;54.63
66871;DHT22;53780;44.998;9.926;2022-10-26T11:21:35;27.07;55.38
66871;DHT22;53780;44.998;9.926;2022-10-26T11:24:49;27.12;55.09
66871;DHT22;53780;44.998;9.926;2022-10-26T11:28:03;27.25;55.40
66871;DHT22;53780;44.998;9.926;2022-10-26T11:31:38;27.28;55.04
66871;DHT22;53780;44.998;9.926;2022-10-26T11:44:48;26.91;55.97
66871;DHT22;53780;44.998;9.926;2022-10-26T11:48:01;26.76;56.34
66871;DHT22;53780;44.998;9.926;2022-10-26T11:51:15;26.66;56.46
66871;DHT22;53780;44.998;9.926;2022-10-26T11:54:40;26.64;55.82
66871;DHT22;53780;44.998;9.926;2022-10-26T11:57:46;26.53;57.57
66871;DHT22;53780;44.998;9.926;2022-10-26T12:00:57;26.40;56.87
66871;DHT22;53780;44.998;9.926;2022-10-26T12:04:03;26.25;56.96
66871;DHT22;53780;44.998;9.926;2022-10-26T12:07:15;26.04;59.15
66871;DHT22;53780;44.998;9.926;2022-10-26T12:10:40;25.98;57.80
66871;DHT22;53780;44.998;9.926;2022-10-26T12:17:09;25.08;60.61
66871;DHT22;53780;44.998;9.926;2022-10-26T12:27:47;24.67;61.31
66871;DHT22;53780;44.998;9.926;2022-10-26T12:30:52;24.74;61.46
66871;DHT22;53780;44.998;9.926;2022-10-26T12:33:56;24.80;61.06
66871;DHT22;53780;44.998;9.926;2022-10-26T12:43:38;24.63;61.60
66871;DHT22;53780;44.998;9.926;2022-10-26T12:46:42;24.56;61.71
66871;DHT22;53780;44.998;9.926;2022-10-26T12:50:00;24.57;61.94
66871;DHT22;53780;44.998;9.926;2022-10-26T12:53:21;24.50;61.57
66871;DHT22;53780;44.998;9.926;2022-10-26T12:59:50;24.40;61.97
66871;DHT22;53780;44.998;9.926;2022-10-26T13:10:25;24.12;62.56
66871;DHT22;53780;44.998;9.926;2022-10-26T13:13:30;24.02;62.87
66871;DHT22;53780;44.998;9.926;2022-10-26T13:16:35;24.02;62.76
66871;DHT22;53780;44.998;9.926;2022-10-26T13:22:45;24.13;63.26
66871;DHT22;53780;44.998;9.926;2022-10-26T13:26:09;24.08;63.20
66871;DHT22;53780;44.998;9.926;2022-10-26T13:29:17;24.06;63.05
66871;DHT22;53780;44.998;9.926;2022-10-26T13:32:21;24.08;63.32
66871;DHT22;53780;44.998;9.926;2022-10-26T13:35:25;24.06;63.71
66871;DHT22;53780;44.998;9.926;2022-10-26T13:38:31;24.09;63.40
66871;DHT22;53780;44.998;9.926;2022-10-26T13:41:40;24.05;63.52
66871;DHT22;53780;44.998;9.926;2022-10-26T13:45:05;24.05;64.05
66871;DHT22;53780;44.998;9.926;2022-10-26T13:48:30;24.02;63.75
66871;DHT22;53780;44.998;9.926;2022-10-26T13:51:42;24.02;63.82
66871;DHT22;53780;44.998;9.926;2022-10-26T13:54:57;24.02;64.07
66871;DHT22;53780;44.998;9.926;2022-10-26T13:58:41;24.06;63.97
66871;DHT22;53780;44.998;9.926;2022-10-26T14:02:04;24.04;63.63
66871;DHT22;53780;44.998;9.926;2022-10-26T14:05:11;23.99;63.91
66871;DHT22;53780;44.998;9.926;2022-10-26T14:08:17;23.86;64.25
66871;DHT22;53780;44.998;9.926;2022-10-26T14:12:12;23.79;64.47
66871;DHT22;53780;44.998;9.926;2022-10-26T14:15:21;23.75;64.75
66871;DHT22;53780;44.998;9.926;2022-10-26T14:18:28;23.69;64.92
66871;DHT22;53780;44.998;9.926;2022-10-26T14:21:38;23.62;65.01
66871;DHT22;53780;44.998;9.926;2022-10-26T14:24:50;23.49;65.30
66871;DHT22;53780;44.998;9.926;2022-10-26T14:27:55;23.41;65.47
66871;DHT22;53780;44.998;9.926;2022-10-26T14:31:22;23.43;65.64
66871;DHT22;53780;44.998;9.926;2022-10-26T14:34:26;23.37;65.75
66871;DHT22;53780;44.998;9.926;2022-10-26T14:37:59;23.39;65.50
66871;DHT22;53780;44.998;9.926;2022-10-26T14:41:03;23.44;65.44
66871;DHT22;53780;44.998;9.926;2022-10-26T14:44:16;23.39;65.67
66871;DHT22;53780;44.998;9.926;2022-10-26T14:47:32;23.31;65.68
66871;DHT22;53780;44.998;9.926;2022-10-26T14:50:36;23.31;65.90
66871;DHT22;53780;44.998;9.926;2022-10-26T14:53:50;23.30;66.06
66871;DHT22;53780;44.998;9.926;2022-10-26T14:56:54;23.28;66.32
66871;DHT22;53780;44.998;9.926;2022-10-26T15:00:20;23.28;66.28
66871;DHT22;53780;44.998;9.926;2022-10-26T15:03:24;23.26;66.45
66871;DHT22;53780;44.998;9.926;2022-10-26T15:07:06;23.24;66.43
66871;DHT22;53780;44.998;9.926;2022-10-26T15:13:46;23.14;66.62
66871;DHT22;53780;44.998;9.926;2022-10-26T15:16:56;23.07;66.62
66871;DHT22;53780;44.998;9.926;2022-10-26T15:20:05;22.98;67.15
66871;DHT22;53780;44.998;9.926;2022-10-26T15:23:12;22.95;66.88
66871;DHT22;53780;44.998;9.926;2022-10-26T15:26:17;22.92;67.07
66871;DHT22;53780;44.998;9.926;2022-10-26T15:29:42;22.82;67.50
66871;DHT22;53780;44.998;9.926;2022-10-26T15:32:46;22.75;67.78
66871;DHT22;53780;44.998;9.926;2022-10-26T15:39:08;22.61;68.41
66871;DHT22;53780;44.998;9.926;2022-10-26T15:42:13;22.54;68.73
66871;DHT22;53780;44.998;9.926;2022-10-26T15:45:24;22.47;68.94
66871;DHT22;53780;44.998;9.926;2022-10-26T15:48:30;22.40;68.90
66871;DHT22;53780;44.998;9.926;2022-10-26T15:51:36;22.31;69.10
66871;DHT22;53780;44.998;9.926;2022-10-26T15:54:40;22.27;69.33
66871;DHT22;53780;44.998;9.926;2022-10-26T15:57:55;22.13;69.55
66871;DHT22;53780;44.998;9.926;2022-10-26T16:00:59;22.00;69.92
66871;DHT22;53780;44.998;9.926;2022-10-26T16:04:02;21.89;70.13
66871;DHT22;53780;44.998;9.926;2022-10-26T16:07:40;21.82;70.34
66871;DHT22;53780;44.998;9.926;2022-10-26T16:10:45;21.66;70.67
66871;DHT22;53780;44.998;9.926;2022-10-26T16:13:50;21.58;70.97
66871;DHT22;53780;44.998;9.926;2022-10-26T16:16:53;21.47;71.14
66871;DHT22;53780;44.998;9.926;2022-10-26T16:19:57;21.35;70.97
66871;DHT22;53780;44.998;9.926;2022-10-26T16:23:46;21.24;71.17
66871;DHT22;53780;44.998;9.926;2022-10-26T16:26:50;21.18;71.43
66871;DHT22;53780;44.998;9.926;2022-10-26T16:29:54;21.08;71.66
66871;DHT22;53780;44.998;9.926;2022-10-26T16:32:58;21.01;72.06
66871;DHT22;53780;44.998;9.926;2022-10-26T16:36:06;20.90;72.42
66871;DHT22;53780;44.998;9.926;2022-10-26T16:39:11;20.86;72.48
66871;DHT22;53780;44.998;9.926;2022-10-26T16:42:15;20.77;72.58
66871;DHT22;53780;44.998;9.926;2022-10-26T16:45:19;20.72;72.68
66871;DHT22;53780;44.998;9.926;2022-10-26T16:48:23;20.65;72.86
66871;DHT22;53780;44.998;9.926;2022-10-26T16:51:27;20.63;73.05
66871;DHT22;53780;44.998;9.926;2022-10-26T16:54:31;20.71;72.99
66871;DHT22;53780;44.998;9.926;2022-10-26T16:57:36;20.84;73.35
66871;DHT22;53780;44.998;9.926;2022-10-26T17:00:45;21.00;72.42
66871;DHT22;53780;44.998;9.926;2022-10-26T17:03:50;21.07;71.61
66871;DHT22;53780;44.998;9.926;2022-10-26T17:06:55;21.10;71.21
66871;DHT22;53780;44.998;9.926;2022-10-26T17:10:00;21.08;70.86
66871;DHT22;53780;44.998;9.926;2022-10-26T17:13:04;21.07;70.73
66871;DHT22;53780;44.998;9.926;2022-10-26T17:16:12;21.01;70.65
66871;DHT22;53780;44.998;9.926;2022-10-26T17:19:16;20.99;70.59
66871;DHT22;53780;44.998;9.926;2022-10-26T17:22:20;20.96;71.11
66871;DHT22;53780;44.998;9.926;2022-10-26T17:25:24;20.94;71.54
66871;DHT22;53780;44.998;9.926;2022-10-26T17:28:28;20.94;71.76
66871;DHT22;53780;44.998;9.926;2022-10-26T17:31:32;20.90;71.83
66871;DHT22;53780;44.998;9.926;2022-10-26T17:34:36;20.87;71.81
66871;DHT22;53780;44.998;9.926;2022-10-26T17:37:41;20.84;71.89
66871;DHT22;53780;44.998;9.926;2022-10-26T17:40:45;20.82;71.95
66871;DHT22;53780;44.998;9.926;2022-10-26T17:43:48;20.79;72.12
66871;DHT22;53780;44.998;9.926;2022-10-26T17:46:53;20.73;72.26
66871;DHT22;53780;44.998;9.926;2022-10-26T17:49:57;20.75;72.27
66871;DHT22;53780;44.998;9.926;2022-10-26T17:53:02;20.72;72.30
66871;DHT22;53780;44.998;9.926;2022-10-26T17:56:16;20.71;72.38
66871;DHT22;53780;44.998;9.926;2022-10-26T17:59:20;20.68;72.55
66871;DHT22;53780;44.998;9.926;2022-10-26T18:02:24;20.62;72.69
66871;DHT22;53780;44.998;9.926;2022-10-26T18:05:28;20.57;72.82
66871;DHT22;53780;44.998;9.926;2022-10-26T18:08:38;20.55;72.89
66871;DHT22;53780;44.998;9.926;2022-10-26T18:11:43;20.52;73.15
66871;DHT22;53780;44.998;9.926;2022-10-26T18:14:46;20.49;73.13
66871;DHT22;53780;44.998;9.926;2022-10-26T18:17:50;20.46;73.24
66871;DHT22;53780;44.998;9.926;2022-10-26T18:21:08;20.45;73.36
66871;DHT22;53780;44.998;9.926;2022-10-26T18:24:13;20.39;73.58
66871;DHT22;53780;44.998;9.926;2022-10-26T18:27:16;20.39;73.61
66871;DHT22;53780;44.998;9.926;2022-10-26T18:30:23;20.39;73.77
66871;DHT22;53780;44.998;9.926;2022-10-26T18:33:27;20.38;73.94
66871;DHT22;53780;44.998;9.926;2022-10-26T18:36:31;20.41;73.96
66871;DHT22;53780;44.998;9.926;2022-10-26T18:39:35;20.41;73.82
66871;DHT22;53780;44.998;9.926;2022-10-26T18:42:39;20.45;73.70
66871;DHT22;53780;44.998;9.926;2022-10-26T18:45:42;20.46;73.53
66871;DHT22;53780;44.998;9.926;2022-10-26T18:48:47;20.51;73.39
66871;DHT22;53780;44.998;9.926;2022-10-26T18:51:51;20.53;73.22
66871;DHT22;53780;44.998;9.926;2022-10-26T18:54:54;20.55;73.08
66871;DHT22;53780;44.998;9.926;2022-10-26T18:57:58;20.57;73.13
66871;DHT22;53780;44.998;9.926;2022-10-26T19:04:09;20.57;73.42
66871;DHT22;53780;44.998;9.926;2022-10-26T19:07:13;20.57;73.42
66871;DHT22;53780;44.998;9.926;2022-10-26T19:10:17;20.61;73.43
66871;DHT22;53780;44.998;9.926;2022-10-26T19:13:21;20.57;73.42
66871;DHT22;53780;44.998;9.926;2022-10-26T19:16:28;20.56;73.49
66871;DHT22;53780;44.998;9.926;2022-10-26T19:19:35;20.61;73.55
66871;DHT22;53780;44.998;9.926;2022-10-26T19:22:39;20.62;73.57
66871;DHT22;53780;44.998;9.926;2022-10-26T19:25:44;20.65;73.74
66871;DHT22;53780;44.998;9.926;2022-10-26T19:29:03;20.66;73.81
66871;DHT22;53780;44.998;9.926;2022-10-26T19:32:09;20.65;73.93
66871;DHT22;53780;44.998;9.926;2022-10-26T19:35:13;20.63;74.14
66871;DHT22;53780;44.998;9.926;2022-10-26T19:38:38;20.63;74.27
66871;DHT22;53780;44.998;9.926;2022-10-26T19:41:48;20.63;74.15
66871;DHT22;53780;44.998;9.926;2022-10-26T19:44:52;20.65;74.25
66871;DHT22;53780;44.998;9.926;2022-10-26T19:48:28;20.61;74.30
66871;DHT22;53780;44.998;9.926;2022-10-26T19:51:32;20.61;74.25
66871;DHT22;53780;44.998;9.926;2022-10-26T19:55:16;20.61;74.36
66871;DHT22;53780;44.998;9.926;2022-10-26T19:58:41;20.61;74.39
66871;DHT22;53780;44.998;9.926;2022-10-26T20:01:46;20.61;74.51
66871;DHT22;53780;44.998;9.926;2022-10-26T20:04:49;20.57;74.62
66871;DHT22;53780;44.998;9.926;2022-10-26T20:07:53;20.57;74.74
66871;DHT22;53780;44.998;9.926;2022-10-26T20:10:57;20.57;74.78
66871;DHT22;53780;44.998;9.926;2022-10-26T20:14:01;20.55;74.93
66871;DHT22;53780;44.998;9.926;2022-10-26T20:21:15;20.49;75.04
66871;DHT22;53780;44.998;9.926;2022-10-26T20:24:20;20.48;75.07
66871;DHT22;53780;44.998;9.926;2022-10-26T20:27:32;20.45;75.14
66871;DHT22;53780;44.998;9.926;2022-10-26T20:30:37;20.42;75.25
66871;DHT22;53780;44.998;9.926;2022-10-26T20:33:41;20.41;75.36
66871;DHT22;53780;44.998;9.926;2022-10-26T20:36:44;20.35;75.52
66871;DHT22;53780;44.998;9.926;2022-10-26T20:39:48;20.29;75.70
66871;DHT22;53780;44.998;9.926;2022-10-26T20:42:55;20.28;75.79
66871;DHT22;53780;44.998;9.926;2022-10-26T20:45:59;20.27;75.79
66871;DHT22;53780;44.998;9.926;2022-10-26T20:49:04;20.27;75.71
66871;DHT22;53780;44.998;9.926;2022-10-26T20:52:13;20.22;75.70
66871;DHT22;53780;44.998;9.926;2022-10-26T20:58:58;20.21;75.82
66871;DHT22;53780;44.998;9.926;2022-10-26T21:02:03;20.20;75.89
66871;DHT22;53780;44.998;9.926;2022-10-26T21:05:07;20.17;76.05
66871;DHT22;53780;44.998;9.926;2022-10-26T21:08:11;20.14;76.09
66871;DHT22;53780;44.998;9.926;2022-10-26T21:11:16;20.11;76.08
66871;DHT22;53780;44.998;9.926;2022-10-26T21:14:20;20.08;76.20
66871;DHT22;53780;44.998;9.926;2022-10-26T21:17:24;20.04;76.22
66871;DHT22;53780;44.998;9.926;2022-10-26T21:20:29;20.00;76.27
66871;DHT22;53780;44.998;9.926;2022-10-26T21:23:38;19.98;76.38
66871;DHT22;53780;44.998;9.926;2022-10-26T21:26:43;19.96;76.38
66871;DHT22;53780;44.998;9.926;2022-10-26T21:30:19;19.90;76.40
66871;DHT22;53780;44.998;9.926;2022-10-26T21:33:23;19.87;76.46
66871;DHT22;53780;44.998;9.926;2022-10-26T21:36:34;19.83;76.53
66871;DHT22;53780;44.998;9.926;2022-10-26T21:39:38;19.74;76.54
66871;DHT22;53780;44.998;9.926;2022-10-26T21:42:47;19.73;76.59
66871;DHT22;53780;44.998;9.926;2022-10-26T21:45:58;19.66;76.49
66871;DHT22;53780;44.998;9.926;2022-10-26T21:49:35;19.58;76.23
66871;DHT22;53780;44.998;9.926;2022-10-26T21:52:39;19.46;74.91
66871;DHT22;53780;44.998;9.926;2022-10-26T21:55:43;19.36;75.02
66871;DHT22;53780;44.998;9.926;2022-10-26T21:58:47;19.29;75.66
66871;DHT22;53780;44.998;9.926;2022-10-26T22:01:52;19.24;76.06
66871;DHT22;53780;44.998;9.926;2022-10-26T22:04:56;19.22;76.41
66871;DHT22;53780;44.998;9.926;2022-10-26T22:07:59;19.15;76.68
66871;DHT22;53780;44.998;9.926;2022-10-26T22:11:08;19.12;76.95
66871;DHT22;53780;44.998;9.926;2022-10-26T22:14:14;19.07;77.16
66871;DHT22;53780;44.998;9.926;2022-10-26T22:17:18;19.08;77.09
66871;DHT22;53780;44.998;9.926;2022-10-26T22:20:21;19.04;77.32
66871;DHT22;53780;44.998;9.926;2022-10-26T22:23:25;18.98;77.49
66871;DHT22;53780;44.998;9.926;2022-10-26T22:26:31;18.95;77.56
66871;DHT22;53780;44.998;9.926;2022-10-26T22:29:35;18.91;77.68
66871;DHT22;53780;44.998;9.926;2022-10-26T22:32:40;18.84;77.66
66871;DHT22;53780;44.998;9.926;2022-10-26T22:35:43;18.77;77.85
66871;DHT22;53780;44.998;9.926;2022-10-26T22:38:47;18.76;78.13
66871;DHT22;53780;44.998;9.926;2022-10-26T22:41:52;18.73;78.30
66871;DHT22;53780;44.998;9.926;2022-10-26T22:44:56;18.70;78.41
66871;DHT22;53780;44.998;9.926;2022-10-26T22:47:59;18.67;78.63
66871;DHT22;53780;44.998;9.926;2022-10-26T22:51:08;18.60;78.67
66871;DHT22;53780;44.998;9.926;2022-10-26T22:54:12;18.57;78.86
66871;DHT22;53780;44.998;9.926;2022-10-26T22:57:16;18.53;78.88
66871;DHT22;53780;44.998;9.926;2022-10-26T23:00:20;18.50;79.08
66871;DHT22;53780;44.998;9.926;2022-10-26T23:03:26;18.48;79.13
66871;DHT22;53780;44.998;9.926;2022-10-26T23:06:31;18.46;79.20
66871;DHT22;53780;44.998;9.926;2022-10-26T23:09:35;18.40;79.20
66871;DHT22;53780;44.998;9.926;2022-10-26T23:12:39;18.33;79.24
66871;DHT22;53780;44.998;9.926;2022-10-26T23:15:42;18.32;79.41
66871;DHT22;53780;44.998;9.926;2022-10-26T23:18:46;18.28;79.64
66871;DHT22;53780;44.998;9.926;2022-10-26T23:21:50;18.28;79.76
66871;DHT22;53780;44.998;9.926;2022-10-26T23:24:54;18.26;80.02
66871;DHT22;53780;44.998;9.926;2022-10-26T23:27:58;18.25;80.16
66871;DHT22;53780;44.998;9.926;2022-10-26T23:31:03;18.22;80.08
66871;DHT22;53780;44.998;9.926;2022-10-26T23:34:07;18.21;80.21
66871;DHT22;53780;44.998;9.926;2022-10-26T23:37:11;18.19;80.16
66871;DHT22;53780;44.998;9.926;2022-10-26T23:40:15;18.15;79.72
66871;DHT22;53780;44.998;9.926;2022-10-26T23:43:19;18.11;79.87
66871;DHT22;53780;44.998;9.926;2022-10-26T23:46:23;18.04;78.33
66871;DHT22;53780;44.998;9.926;2022-10-26T23:49:27;17.98;79.47
66871;DHT22;53780;44.998;9.926;2022-10-26T23:52:31;17.95;80.21
66871;DHT22;53780;44.998;9.926;2022-10-26T23:55:34;17.91;80.42
66871;DHT22;53780;44.998;9.926;2022-10-26T23:58:38;17.88;80.83
